sensor_id;sensor_type;location;lat;lon;timestamp;temperature;humidity
32534;DHT22;18973;48.580;8.912;2023-03-23T00:01:13;12.60;86.90
32534;DHT22;18973;48.580;8.912;2023-03-23T00:03:40;12.70;86.50
32534;DHT22;18973;48.580;8.912;2023-03-23T00:06:07;12.60;87.10
32534;DHT22;18973;48.580;8.912;2023-03-23T00:08:39;12.60;87.70
32534;DHT22;18973;48.580;8.912;2023-03-23T00:11:16;12.70;87.80
32534;DHT22;18973;48.580;8.912;2023-03-23T00:13:44;12.60;88.20
32534;DHT22;18973;48.580;8.912;2023-03-23T00:16:16;12.60;88.80
32534;DHT22;18973;48.580;8.912;2023-03-23T00:18:50;12.60;89.70
32534;DHT22;18973;48.580;8.912;2023-03-23T00:21:20;12.60;89.00
32534;DHT22;18973;48.580;8.912;2023-03-23T00:23:51;12.50;88.70
32534;DHT22;18973;48.580;8.912;2023-03-23T00:26:17;12.70;88.50
32534;DHT22;18973;48.580;8.912;2023-03-23T00:28:44;12.80;88.40
32534;DHT22;18973;48.580;8.912;2023-03-23T00:31:12;12.80;89.30
32534;DHT22;18973;48.580;8.912;2023-03-23T00:33:38;12.80;89.10
32534;DHT22;18973;48.580;8.912;2023-03-23T00:38:34;12.70;89.30
32534;DHT22;18973;48.580;8.912;2023-03-23T00:41:01;12.60;89.70
32534;DHT22;18973;48.580;8.912;2023-03-23T00:43:28;12.70;88.60
32534;DHT22;18973;48.580;8.912;2023-03-23T00:45:55;12.70;88.00
32534;DHT22;18973;48.580;8.912;2023-03-23T00:48:24;12.80;88.20
32534;DHT22;18973;48.580;8.912;2023-03-23T00:50:51;12.90;87.70
32534;DHT22;18973;48.580;8.912;2023-03-23T00:53:18;13.00;87.40
32534;DHT22;18973;48.580;8.912;2023-03-23T00:55:45;12.90;88.70
32534;DHT22;18973;48.580;8.912;2023-03-23T00:58:12;12.90;89.70
32534;DHT22;18973;48.580;8.912;2023-03-23T01:00:39;12.90;89.50
32534;DHT22;18973;48.580;8.912;2023-03-23T01:03:05;12.90;88.50
32534;DHT22;18973;48.580;8.912;2023-03-23T01:05:36;12.90;89.70
32534;DHT22;18973;48.580;8.912;2023-03-23T01:08:03;12.90;88.80
32534;DHT22;18973;48.580;8.912;2023-03-23T01:10:29;12.70;90.50
32534;DHT22;18973;48.580;8.912;2023-03-23T01:13:01;12.70;90.70
32534;DHT22;18973;48.580;8.912;2023-03-23T01:15:28;12.70;90.80
32534;DHT22;18973;48.580;8.912;2023-03-23T01:17:54;12.70;90.90
32534;DHT22;18973;48.580;8.912;2023-03-23T01:20:20;12.50;91.50
32534;DHT22;18973;48.580;8.912;2023-03-23T01:22:46;12.60;91.50
32534;DHT22;18973;48.580;8.912;2023-03-23T01:25:13;12.70;91.60
32534;DHT22;18973;48.580;8.912;2023-03-23T01:27:39;12.40;91.40
32534;DHT22;18973;48.580;8.912;2023-03-23T01:30:07;12.50;91.70
32534;DHT22;18973;48.580;8.912;2023-03-23T01:32:33;12.50;92.30
32534;DHT22;18973;48.580;8.912;2023-03-23T01:34:59;12.40;92.50
32534;DHT22;18973;48.580;8.912;2023-03-23T01:37:24;12.60;92.20
32534;DHT22;18973;48.580;8.912;2023-03-23T01:39:55;12.70;91.80
32534;DHT22;18973;48.580;8.912;2023-03-23T01:42:29;12.50;92.00
32534;DHT22;18973;48.580;8.912;2023-03-23T01:45:13;12.60;91.70
32534;DHT22;18973;48.580;8.912;2023-03-23T01:47:44;12.70;91.60
32534;DHT22;18973;48.580;8.912;2023-03-23T01:50:10;12.70;91.40
32534;DHT22;18973;48.580;8.912;2023-03-23T01:52:36;12.60;91.50
32534;DHT22;18973;48.580;8.912;2023-03-23T01:55:02;12.70;91.40
32534;DHT22;18973;48.580;8.912;2023-03-23T01:57:29;12.80;91.20
32534;DHT22;18973;48.580;8.912;2023-03-23T01:59:57;12.80;91.30
32534;DHT22;18973;48.580;8.912;2023-03-23T02:02:25;12.60;91.40
32534;DHT22;18973;48.580;8.912;2023-03-23T02:04:57;12.60;91.60
32534;DHT22;18973;48.580;8.912;2023-03-23T02:07:25;12.80;91.20
32534;DHT22;18973;48.580;8.912;2023-03-23T02:09:51;12.80;91.10
32534;DHT22;18973;48.580;8.912;2023-03-23T02:12:17;12.90;91.10
32534;DHT22;18973;48.580;8.912;2023-03-23T02:14:43;12.90;91.10
32534;DHT22;18973;48.580;8.912;2023-03-23T02:17:32;12.90;91.00
32534;DHT22;18973;48.580;8.912;2023-03-23T02:21:08;12.90;91.50
32534;DHT22;18973;48.580;8.912;2023-03-23T02:38:35;12.90;91.60
32534;DHT22;18973;48.580;8.912;2023-03-23T02:41:03;13.00;91.60
32534;DHT22;18973;48.580;8.912;2023-03-23T02:43:34;13.00;91.90
32534;DHT22;18973;48.580;8.912;2023-03-23T02:46:05;12.90;91.80
32534;DHT22;18973;48.580;8.912;2023-03-23T02:48:33;12.90;92.00
32534;DHT22;18973;48.580;8.912;2023-03-23T02:50:59;12.80;92.10
32534;DHT22;18973;48.580;8.912;2023-03-23T02:53:27;12.70;92.50
32534;DHT22;18973;48.580;8.912;2023-03-23T02:55:54;12.70;92.40
32534;DHT22;18973;48.580;8.912;2023-03-23T02:58:21;12.80;92.40
32534;DHT22;18973;48.580;8.912;2023-03-23T03:00:50;12.90;92.30
32534;DHT22;18973;48.580;8.912;2023-03-23T03:03:19;12.80;92.60
32534;DHT22;18973;48.580;8.912;2023-03-23T03:08:49;12.70;93.30
32534;DHT22;18973;48.580;8.912;2023-03-23T03:11:19;12.80;93.50
32534;DHT22;18973;48.580;8.912;2023-03-23T03:14:01;12.60;93.30
32534;DHT22;18973;48.580;8.912;2023-03-23T03:16:40;12.50;93.60
32534;DHT22;18973;48.580;8.912;2023-03-23T03:19:16;12.50;93.70
32534;DHT22;18973;48.580;8.912;2023-03-23T03:21:46;12.50;94.10
32534;DHT22;18973;48.580;8.912;2023-03-23T03:24:15;12.50;94.00
32534;DHT22;18973;48.580;8.912;2023-03-23T03:26:45;12.30;94.10
32534;DHT22;18973;48.580;8.912;2023-03-23T03:29:14;12.30;94.40
32534;DHT22;18973;48.580;8.912;2023-03-23T03:31:44;12.30;94.50
32534;DHT22;18973;48.580;8.912;2023-03-23T03:34:11;12.30;94.10
32534;DHT22;18973;48.580;8.912;2023-03-23T03:36:38;12.40;94.20
32534;DHT22;18973;48.580;8.912;2023-03-23T03:39:08;12.50;94.30
32534;DHT22;18973;48.580;8.912;2023-03-23T03:41:35;12.60;93.90
32534;DHT22;18973;48.580;8.912;2023-03-23T03:44:03;12.60;93.90
32534;DHT22;18973;48.580;8.912;2023-03-23T03:46:29;12.60;94.00
32534;DHT22;18973;48.580;8.912;2023-03-23T03:49:00;12.60;94.80
32534;DHT22;18973;48.580;8.912;2023-03-23T03:51:27;12.70;94.60
32534;DHT22;18973;48.580;8.912;2023-03-23T03:53:53;12.70;94.80
32534;DHT22;18973;48.580;8.912;2023-03-23T03:56:19;12.70;94.80
32534;DHT22;18973;48.580;8.912;2023-03-23T03:58:47;12.70;95.00
32534;DHT22;18973;48.580;8.912;2023-03-23T04:01:14;12.70;95.00
32534;DHT22;18973;48.580;8.912;2023-03-23T04:03:41;12.70;95.10
32534;DHT22;18973;48.580;8.912;2023-03-23T04:06:07;12.70;94.90
32534;DHT22;18973;48.580;8.912;2023-03-23T04:08:33;12.70;94.90
32534;DHT22;18973;48.580;8.912;2023-03-23T04:10:59;12.60;95.50
32534;DHT22;18973;48.580;8.912;2023-03-23T04:13:26;12.60;95.70
32534;DHT22;18973;48.580;8.912;2023-03-23T04:15:51;12.60;95.80
32534;DHT22;18973;48.580;8.912;2023-03-23T04:18:18;12.60;96.00
32534;DHT22;18973;48.580;8.912;2023-03-23T04:20:45;12.70;96.00
32534;DHT22;18973;48.580;8.912;2023-03-23T04:23:13;12.50;96.20
32534;DHT22;18973;48.580;8.912;2023-03-23T04:25:39;12.50;96.30
32534;DHT22;18973;48.580;8.912;2023-03-23T04:28:07;12.50;96.40
32534;DHT22;18973;48.580;8.912;2023-03-23T04:30:36;12.40;96.90
32534;DHT22;18973;48.580;8.912;2023-03-23T04:33:02;12.40;97.20
32534;DHT22;18973;48.580;8.912;2023-03-23T04:35:28;12.30;97.50
32534;DHT22;18973;48.580;8.912;2023-03-23T04:37:55;12.20;97.70
32534;DHT22;18973;48.580;8.912;2023-03-23T04:40:22;12.10;98.00
32534;DHT22;18973;48.580;8.912;2023-03-23T04:42:48;12.10;98.00
32534;DHT22;18973;48.580;8.912;2023-03-23T04:45:20;12.00;97.90
32534;DHT22;18973;48.580;8.912;2023-03-23T04:47:50;12.20;98.00
32534;DHT22;18973;48.580;8.912;2023-03-23T04:50:23;12.10;98.10
32534;DHT22;18973;48.580;8.912;2023-03-23T04:52:51;12.10;98.00
32534;DHT22;18973;48.580;8.912;2023-03-23T04:55:17;12.10;98.30
32534;DHT22;18973;48.580;8.912;2023-03-23T04:57:44;12.10;98.30
32534;DHT22;18973;48.580;8.912;2023-03-23T05:00:10;12.10;98.40
32534;DHT22;18973;48.580;8.912;2023-03-23T05:02:42;12.20;98.20
32534;DHT22;18973;48.580;8.912;2023-03-23T05:05:10;12.30;97.90
32534;DHT22;18973;48.580;8.912;2023-03-23T05:07:41;12.30;97.90
32534;DHT22;18973;48.580;8.912;2023-03-23T05:10:08;12.30;98.20
32534;DHT22;18973;48.580;8.912;2023-03-23T05:12:35;12.30;98.20
32534;DHT22;18973;48.580;8.912;2023-03-23T05:15:02;12.30;98.10
32534;DHT22;18973;48.580;8.912;2023-03-23T05:17:27;12.30;98.50
32534;DHT22;18973;48.580;8.912;2023-03-23T05:19:56;12.20;98.70
32534;DHT22;18973;48.580;8.912;2023-03-23T05:22:22;12.20;98.20
32534;DHT22;18973;48.580;8.912;2023-03-23T05:24:49;12.30;98.20
32534;DHT22;18973;48.580;8.912;2023-03-23T05:27:17;12.40;98.00
32534;DHT22;18973;48.580;8.912;2023-03-23T05:29:44;12.40;98.30
32534;DHT22;18973;48.580;8.912;2023-03-23T05:32:11;12.40;98.30
32534;DHT22;18973;48.580;8.912;2023-03-23T05:34:37;12.30;98.60
32534;DHT22;18973;48.580;8.912;2023-03-23T05:37:03;12.30;98.50
32534;DHT22;18973;48.580;8.912;2023-03-23T05:39:30;12.30;98.80
32534;DHT22;18973;48.580;8.912;2023-03-23T05:41:57;12.30;99.00
32534;DHT22;18973;48.580;8.912;2023-03-23T05:44:22;12.40;98.90
32534;DHT22;18973;48.580;8.912;2023-03-23T05:46:49;12.40;98.90
32534;DHT22;18973;48.580;8.912;2023-03-23T05:49:17;12.40;99.00
32534;DHT22;18973;48.580;8.912;2023-03-23T05:51:46;12.30;99.50
32534;DHT22;18973;48.580;8.912;2023-03-23T05:54:13;12.40;99.40
32534;DHT22;18973;48.580;8.912;2023-03-23T05:56:40;12.30;99.40
32534;DHT22;18973;48.580;8.912;2023-03-23T05:59:06;12.40;99.80
32534;DHT22;18973;48.580;8.912;2023-03-23T06:01:32;12.30;99.40
32534;DHT22;18973;48.580;8.912;2023-03-23T06:03:58;12.30;99.60
32534;DHT22;18973;48.580;8.912;2023-03-23T06:06:30;12.20;99.40
32534;DHT22;18973;48.580;8.912;2023-03-23T06:08:57;12.20;99.60
32534;DHT22;18973;48.580;8.912;2023-03-23T06:11:24;12.30;99.90
32534;DHT22;18973;48.580;8.912;2023-03-23T06:13:50;12.30;99.70
32534;DHT22;18973;48.580;8.912;2023-03-23T06:16:16;12.50;99.60
32534;DHT22;18973;48.580;8.912;2023-03-23T06:18:42;12.50;99.40
32534;DHT22;18973;48.580;8.912;2023-03-23T06:21:08;12.50;99.70
32534;DHT22;18973;48.580;8.912;2023-03-23T06:23:34;12.50;99.70
32534;DHT22;18973;48.580;8.912;2023-03-23T06:26:04;12.50;99.40
32534;DHT22;18973;48.580;8.912;2023-03-23T06:28:31;12.70;99.40
32534;DHT22;18973;48.580;8.912;2023-03-23T06:31:02;12.70;99.80
32534;DHT22;18973;48.580;8.912;2023-03-23T06:33:30;12.90;99.70
32534;DHT22;18973;48.580;8.912;2023-03-23T06:35:55;12.90;99.60
32534;DHT22;18973;48.580;8.912;2023-03-23T06:38:21;12.90;99.30
32534;DHT22;18973;48.580;8.912;2023-03-23T06:40:47;12.90;99.70
32534;DHT22;18973;48.580;8.912;2023-03-23T06:43:13;12.80;99.90
32534;DHT22;18973;48.580;8.912;2023-03-23T06:45:39;12.90;99.90
32534;DHT22;18973;48.580;8.912;2023-03-23T06:48:06;12.90;99.90
32534;DHT22;18973;48.580;8.912;2023-03-23T06:50:32;12.90;99.90
32534;DHT22;18973;48.580;8.912;2023-03-23T06:52:58;12.90;99.90
32534;DHT22;18973;48.580;8.912;2023-03-23T06:55:23;13.00;99.90
32534;DHT22;18973;48.580;8.912;2023-03-23T06:57:49;13.00;99.90
32534;DHT22;18973;48.580;8.912;2023-03-23T07:00:15;13.00;99.90
32534;DHT22;18973;48.580;8.912;2023-03-23T07:02:41;13.20;99.90
32534;DHT22;18973;48.580;8.912;2023-03-23T07:05:08;13.30;99.90
32534;DHT22;18973;48.580;8.912;2023-03-23T07:07:35;13.20;99.90
32534;DHT22;18973;48.580;8.912;2023-03-23T07:10:03;13.20;99.90
32534;DHT22;18973;48.580;8.912;2023-03-23T07:12:29;13.30;99.90
32534;DHT22;18973;48.580;8.912;2023-03-23T07:14:55;13.30;99.90
32534;DHT22;18973;48.580;8.912;2023-03-23T07:17:21;13.30;99.90
32534;DHT22;18973;48.580;8.912;2023-03-23T07:19:47;13.30;99.90
32534;DHT22;18973;48.580;8.912;2023-03-23T07:22:12;13.40;99.90
32534;DHT22;18973;48.580;8.912;2023-03-23T07:24:38;13.40;99.90
32534;DHT22;18973;48.580;8.912;2023-03-23T07:27:04;13.40;99.90
32534;DHT22;18973;48.580;8.912;2023-03-23T07:29:30;13.50;99.90
32534;DHT22;18973;48.580;8.912;2023-03-23T07:31:56;13.40;99.90
32534;DHT22;18973;48.580;8.912;2023-03-23T07:34:22;13.40;99.90
32534;DHT22;18973;48.580;8.912;2023-03-23T07:36:48;13.40;99.90
32534;DHT22;18973;48.580;8.912;2023-03-23T07:39:14;13.40;99.90
32534;DHT22;18973;48.580;8.912;2023-03-23T07:41:40;13.40;99.90
32534;DHT22;18973;48.580;8.912;2023-03-23T07:44:06;13.60;99.90
32534;DHT22;18973;48.580;8.912;2023-03-23T07:46:32;13.60;99.90
32534;DHT22;18973;48.580;8.912;2023-03-23T07:48:59;13.70;99.90
32534;DHT22;18973;48.580;8.912;2023-03-23T07:51:29;13.80;99.80
32534;DHT22;18973;48.580;8.912;2023-03-23T07:53:55;13.80;99.90
32534;DHT22;18973;48.580;8.912;2023-03-23T07:56:22;13.90;99.90
32534;DHT22;18973;48.580;8.912;2023-03-23T07:58:48;14.00;99.70
32534;DHT22;18973;48.580;8.912;2023-03-23T08:01:14;14.10;99.70
32534;DHT22;18973;48.580;8.912;2023-03-23T08:03:39;14.10;99.70
32534;DHT22;18973;48.580;8.912;2023-03-23T08:06:05;14.10;99.90
32534;DHT22;18973;48.580;8.912;2023-03-23T08:08:31;14.20;99.70
32534;DHT22;18973;48.580;8.912;2023-03-23T08:10:58;14.20;99.90
32534;DHT22;18973;48.580;8.912;2023-03-23T08:13:24;14.30;99.80
32534;DHT22;18973;48.580;8.912;2023-03-23T08:15:50;14.30;99.90
32534;DHT22;18973;48.580;8.912;2023-03-23T08:18:17;14.30;99.90
32534;DHT22;18973;48.580;8.912;2023-03-23T08:20:43;14.50;99.90
32534;DHT22;18973;48.580;8.912;2023-03-23T08:23:10;14.50;99.80
32534;DHT22;18973;48.580;8.912;2023-03-23T08:25:37;14.50;99.90
32534;DHT22;18973;48.580;8.912;2023-03-23T08:28:03;14.60;99.60
32534;DHT22;18973;48.580;8.912;2023-03-23T08:30:30;14.60;99.90
32534;DHT22;18973;48.580;8.912;2023-03-23T08:32:59;14.60;99.90
32534;DHT22;18973;48.580;8.912;2023-03-23T08:35:26;14.70;99.90
32534;DHT22;18973;48.580;8.912;2023-03-23T08:37:52;14.70;99.90
32534;DHT22;18973;48.580;8.912;2023-03-23T08:40:21;14.70;99.90
32534;DHT22;18973;48.580;8.912;2023-03-23T08:42:49;14.60;99.90
32534;DHT22;18973;48.580;8.912;2023-03-23T08:45:19;14.60;99.90
32534;DHT22;18973;48.580;8.912;2023-03-23T08:47:46;14.60;99.90
32534;DHT22;18973;48.580;8.912;2023-03-23T08:50:16;14.60;99.90
32534;DHT22;18973;48.580;8.912;2023-03-23T08:52:43;14.50;99.90
32534;DHT22;18973;48.580;8.912;2023-03-23T08:55:09;14.60;99.90
32534;DHT22;18973;48.580;8.912;2023-03-23T08:57:36;14.60;99.90
32534;DHT22;18973;48.580;8.912;2023-03-23T09:00:07;14.60;99.90
32534;DHT22;18973;48.580;8.912;2023-03-23T09:02:48;14.60;99.90
32534;DHT22;18973;48.580;8.912;2023-03-23T09:05:16;14.60;99.90
32534;DHT22;18973;48.580;8.912;2023-03-23T09:07:46;14.60;99.90
32534;DHT22;18973;48.580;8.912;2023-03-23T09:10:13;14.60;99.90
32534;DHT22;18973;48.580;8.912;2023-03-23T09:12:40;14.60;99.90
32534;DHT22;18973;48.580;8.912;2023-03-23T09:15:07;14.60;99.90
32534;DHT22;18973;48.580;8.912;2023-03-23T09:17:39;14.50;99.90
32534;DHT22;18973;48.580;8.912;2023-03-23T09:20:05;14.50;99.90
32534;DHT22;18973;48.580;8.912;2023-03-23T09:22:39;14.50;99.90
32534;DHT22;18973;48.580;8.912;2023-03-23T09:25:07;14.60;99.90
32534;DHT22;18973;48.580;8.912;2023-03-23T09:27:34;14.60;99.90
32534;DHT22;18973;48.580;8.912;2023-03-23T09:30:03;14.60;99.90
32534;DHT22;18973;48.580;8.912;2023-03-23T09:32:33;14.60;99.90
32534;DHT22;18973;48.580;8.912;2023-03-23T09:35:01;14.60;99.90
32534;DHT22;18973;48.580;8.912;2023-03-23T09:37:27;14.60;99.90
32534;DHT22;18973;48.580;8.912;2023-03-23T09:39:53;14.60;99.90
32534;DHT22;18973;48.580;8.912;2023-03-23T09:44:57;14.60;99.90
32534;DHT22;18973;48.580;8.912;2023-03-23T09:50:25;14.60;99.90
32534;DHT22;18973;48.580;8.912;2023-03-23T09:52:58;14.60;99.90
32534;DHT22;18973;48.580;8.912;2023-03-23T09:55:24;14.70;99.90
32534;DHT22;18973;48.580;8.912;2023-03-23T10:00:34;14.80;99.90
32534;DHT22;18973;48.580;8.912;2023-03-23T10:03:19;14.90;99.90
32534;DHT22;18973;48.580;8.912;2023-03-23T10:05:47;14.90;99.90
32534;DHT22;18973;48.580;8.912;2023-03-23T10:08:25;15.00;99.90
32534;DHT22;18973;48.580;8.912;2023-03-23T10:11:16;15.10;99.90
32534;DHT22;18973;48.580;8.912;2023-03-23T10:16:33;15.60;99.90
32534;DHT22;18973;48.580;8.912;2023-03-23T10:19:12;15.80;99.90
32534;DHT22;18973;48.580;8.912;2023-03-23T10:21:50;15.90;99.90
32534;DHT22;18973;48.580;8.912;2023-03-23T10:24:21;15.90;99.90
32534;DHT22;18973;48.580;8.912;2023-03-23T10:29:52;15.90;99.90
32534;DHT22;18973;48.580;8.912;2023-03-23T10:32:45;15.80;99.90
32534;DHT22;18973;48.580;8.912;2023-03-23T10:35:24;15.90;99.90
32534;DHT22;18973;48.580;8.912;2023-03-23T10:37:58;15.90;99.70
32534;DHT22;18973;48.580;8.912;2023-03-23T10:40:27;15.90;99.70
32534;DHT22;18973;48.580;8.912;2023-03-23T10:42:55;15.80;99.90
32534;DHT22;18973;48.580;8.912;2023-03-23T10:45:24;15.80;99.90
32534;DHT22;18973;48.580;8.912;2023-03-23T10:50:35;15.80;99.90
32534;DHT22;18973;48.580;8.912;2023-03-23T10:56:25;16.00;99.90
32534;DHT22;18973;48.580;8.912;2023-03-23T10:58:52;15.90;99.80
32534;DHT22;18973;48.580;8.912;2023-03-23T11:01:20;15.80;99.90
32534;DHT22;18973;48.580;8.912;2023-03-23T11:03:53;15.80;99.90
32534;DHT22;18973;48.580;8.912;2023-03-23T11:06:24;15.80;99.60
32534;DHT22;18973;48.580;8.912;2023-03-23T11:09:08;15.80;99.60
32534;DHT22;18973;48.580;8.912;2023-03-23T11:11:42;15.70;99.90
32534;DHT22;18973;48.580;8.912;2023-03-23T11:14:18;15.70;99.90
32534;DHT22;18973;48.580;8.912;2023-03-23T11:17:02;15.70;99.90
32534;DHT22;18973;48.580;8.912;2023-03-23T11:19:33;15.80;99.90
32534;DHT22;18973;48.580;8.912;2023-03-23T11:24:44;15.90;99.90
32534;DHT22;18973;48.580;8.912;2023-03-23T11:27:11;16.00;99.90
32534;DHT22;18973;48.580;8.912;2023-03-23T11:29:52;16.00;99.90
32534;DHT22;18973;48.580;8.912;2023-03-23T11:32:23;16.00;99.90
32534;DHT22;18973;48.580;8.912;2023-03-23T11:34:58;16.20;99.90
32534;DHT22;18973;48.580;8.912;2023-03-23T11:38:11;16.20;99.70
32534;DHT22;18973;48.580;8.912;2023-03-23T11:40:20;16.20;99.50
32534;DHT22;18973;48.580;8.912;2023-03-23T11:42:57;16.30;98.70
32534;DHT22;18973;48.580;8.912;2023-03-23T11:45:37;16.20;98.70
32534;DHT22;18973;48.580;8.912;2023-03-23T11:50:54;16.20;98.90
32534;DHT22;18973;48.580;8.912;2023-03-23T11:53:45;16.20;98.60
32534;DHT22;18973;48.580;8.912;2023-03-23T11:56:29;16.20;98.70
32534;DHT22;18973;48.580;8.912;2023-03-23T11:58:58;16.20;99.90
32534;DHT22;18973;48.580;8.912;2023-03-23T12:04:13;16.40;99.80
32534;DHT22;18973;48.580;8.912;2023-03-23T12:06:50;16.40;98.60
32534;DHT22;18973;48.580;8.912;2023-03-23T12:15:26;16.40;97.30
32534;DHT22;18973;48.580;8.912;2023-03-23T12:24:06;16.40;97.10
32534;DHT22;18973;48.580;8.912;2023-03-23T12:26:44;16.30;96.40
32534;DHT22;18973;48.580;8.912;2023-03-23T12:29:41;16.30;97.40
32534;DHT22;18973;48.580;8.912;2023-03-23T12:32:39;16.40;97.20
32534;DHT22;18973;48.580;8.912;2023-03-23T12:46:36;16.70;96.40
32534;DHT22;18973;48.580;8.912;2023-03-23T12:52:20;16.90;94.90
32534;DHT22;18973;48.580;8.912;2023-03-23T12:55:04;16.90;96.40
32534;DHT22;18973;48.580;8.912;2023-03-23T12:58:00;16.90;95.70
32534;DHT22;18973;48.580;8.912;2023-03-23T13:00:54;17.00;98.10
32534;DHT22;18973;48.580;8.912;2023-03-23T13:03:46;17.20;94.70
32534;DHT22;18973;48.580;8.912;2023-03-23T13:09:11;17.30;94.70
32534;DHT22;18973;48.580;8.912;2023-03-23T13:11:42;17.30;94.10
32534;DHT22;18973;48.580;8.912;2023-03-23T13:17:11;17.40;94.80
32534;DHT22;18973;48.580;8.912;2023-03-23T13:22:58;17.30;95.00
32534;DHT22;18973;48.580;8.912;2023-03-23T13:28:19;17.40;93.70
32534;DHT22;18973;48.580;8.912;2023-03-23T13:31:04;17.40;93.60
32534;DHT22;18973;48.580;8.912;2023-03-23T13:33:35;17.30;92.50
32534;DHT22;18973;48.580;8.912;2023-03-23T13:36:13;17.40;92.80
32534;DHT22;18973;48.580;8.912;2023-03-23T13:38:47;17.40;93.30
32534;DHT22;18973;48.580;8.912;2023-03-23T13:41:15;17.40;93.70
32534;DHT22;18973;48.580;8.912;2023-03-23T13:43:42;17.50;93.70
32534;DHT22;18973;48.580;8.912;2023-03-23T13:57:20;17.50;92.60
32534;DHT22;18973;48.580;8.912;2023-03-23T13:59:48;17.60;93.50
32534;DHT22;18973;48.580;8.912;2023-03-23T14:02:41;17.70;93.50
32534;DHT22;18973;48.580;8.912;2023-03-23T14:05:11;17.90;92.80
32534;DHT22;18973;48.580;8.912;2023-03-23T14:07:53;17.90;92.00
32534;DHT22;18973;48.580;8.912;2023-03-23T14:10:19;17.90;92.00
32534;DHT22;18973;48.580;8.912;2023-03-23T14:12:45;17.90;92.40
32534;DHT22;18973;48.580;8.912;2023-03-23T14:15:13;17.90;91.30
32534;DHT22;18973;48.580;8.912;2023-03-23T14:17:44;17.80;92.20
32534;DHT22;18973;48.580;8.912;2023-03-23T14:20:30;17.80;91.70
32534;DHT22;18973;48.580;8.912;2023-03-23T14:22:58;17.70;91.10
32534;DHT22;18973;48.580;8.912;2023-03-23T14:25:28;17.60;90.70
32534;DHT22;18973;48.580;8.912;2023-03-23T14:27:55;17.50;90.80
32534;DHT22;18973;48.580;8.912;2023-03-23T14:30:26;17.40;90.00
32534;DHT22;18973;48.580;8.912;2023-03-23T14:32:54;17.30;90.70
32534;DHT22;18973;48.580;8.912;2023-03-23T14:35:31;17.20;90.40
32534;DHT22;18973;48.580;8.912;2023-03-23T14:37:57;17.20;90.00
32534;DHT22;18973;48.580;8.912;2023-03-23T14:40:26;17.30;90.80
32534;DHT22;18973;48.580;8.912;2023-03-23T14:42:53;17.20;90.20
32534;DHT22;18973;48.580;8.912;2023-03-23T14:45:21;17.20;90.20
32534;DHT22;18973;48.580;8.912;2023-03-23T14:48:00;17.10;88.20
32534;DHT22;18973;48.580;8.912;2023-03-23T14:55:47;17.00;88.60
32534;DHT22;18973;48.580;8.912;2023-03-23T14:58:17;17.00;89.20
32534;DHT22;18973;48.580;8.912;2023-03-23T15:01:11;16.90;90.20
32534;DHT22;18973;48.580;8.912;2023-03-23T15:03:43;16.90;88.80
32534;DHT22;18973;48.580;8.912;2023-03-23T15:06:17;16.90;89.90
32534;DHT22;18973;48.580;8.912;2023-03-23T15:08:45;16.90;90.20
32534;DHT22;18973;48.580;8.912;2023-03-23T15:13:50;16.90;89.60
32534;DHT22;18973;48.580;8.912;2023-03-23T15:16:22;16.80;90.30
32534;DHT22;18973;48.580;8.912;2023-03-23T15:18:58;16.70;90.00
32534;DHT22;18973;48.580;8.912;2023-03-23T15:21:32;16.80;90.80
32534;DHT22;18973;48.580;8.912;2023-03-23T15:24:18;16.70;90.50
32534;DHT22;18973;48.580;8.912;2023-03-23T15:26:44;16.70;90.80
32534;DHT22;18973;48.580;8.912;2023-03-23T15:29:15;16.70;90.00
32534;DHT22;18973;48.580;8.912;2023-03-23T15:31:44;16.60;90.50
32534;DHT22;18973;48.580;8.912;2023-03-23T15:34:16;16.70;90.30
32534;DHT22;18973;48.580;8.912;2023-03-23T15:36:42;16.60;90.30
32534;DHT22;18973;48.580;8.912;2023-03-23T15:39:12;16.50;89.60
32534;DHT22;18973;48.580;8.912;2023-03-23T15:41:47;16.50;90.20
32534;DHT22;18973;48.580;8.912;2023-03-23T15:44:30;16.40;90.20
32534;DHT22;18973;48.580;8.912;2023-03-23T15:47:17;16.30;90.30
32534;DHT22;18973;48.580;8.912;2023-03-23T15:49:45;16.30;90.50
32534;DHT22;18973;48.580;8.912;2023-03-23T15:52:12;16.30;90.50
32534;DHT22;18973;48.580;8.912;2023-03-23T15:54:45;16.30;90.30
32534;DHT22;18973;48.580;8.912;2023-03-23T15:57:11;16.30;90.10
32534;DHT22;18973;48.580;8.912;2023-03-23T15:59:37;16.20;90.40
32534;DHT22;18973;48.580;8.912;2023-03-23T16:02:03;16.20;91.00
32534;DHT22;18973;48.580;8.912;2023-03-23T16:04:29;16.10;90.70
32534;DHT22;18973;48.580;8.912;2023-03-23T16:06:56;16.10;91.00
32534;DHT22;18973;48.580;8.912;2023-03-23T16:09:23;16.20;91.10
32534;DHT22;18973;48.580;8.912;2023-03-23T16:11:49;16.10;91.70
32534;DHT22;18973;48.580;8.912;2023-03-23T16:14:15;16.10;91.40
32534;DHT22;18973;48.580;8.912;2023-03-23T16:16:46;16.10;91.70
32534;DHT22;18973;48.580;8.912;2023-03-23T16:19:14;16.10;92.00
32534;DHT22;18973;48.580;8.912;2023-03-23T16:21:40;16.20;91.90
32534;DHT22;18973;48.580;8.912;2023-03-23T16:24:07;16.20;92.10
32534;DHT22;18973;48.580;8.912;2023-03-23T16:26:34;16.20;92.30
32534;DHT22;18973;48.580;8.912;2023-03-23T16:29:00;16.10;92.80
32534;DHT22;18973;48.580;8.912;2023-03-23T16:31:27;16.20;92.50
32534;DHT22;18973;48.580;8.912;2023-03-23T16:33:53;16.10;93.00
32534;DHT22;18973;48.580;8.912;2023-03-23T16:36:19;16.10;92.70
32534;DHT22;18973;48.580;8.912;2023-03-23T16:38:45;16.10;93.10
32534;DHT22;18973;48.580;8.912;2023-03-23T16:41:10;16.10;93.30
32534;DHT22;18973;48.580;8.912;2023-03-23T16:43:36;16.10;92.70
32534;DHT22;18973;48.580;8.912;2023-03-23T16:46:02;16.00;93.10
32534;DHT22;18973;48.580;8.912;2023-03-23T16:48:28;16.10;93.40
32534;DHT22;18973;48.580;8.912;2023-03-23T16:50:53;16.00;93.50
32534;DHT22;18973;48.580;8.912;2023-03-23T16:53:20;15.90;92.90
32534;DHT22;18973;48.580;8.912;2023-03-23T16:55:46;16.00;92.80
32534;DHT22;18973;48.580;8.912;2023-03-23T16:58:15;16.00;93.10
32534;DHT22;18973;48.580;8.912;2023-03-23T17:00:41;15.90;92.90
32534;DHT22;18973;48.580;8.912;2023-03-23T17:03:07;15.90;93.40
32534;DHT22;18973;48.580;8.912;2023-03-23T17:05:34;15.90;93.60
32534;DHT22;18973;48.580;8.912;2023-03-23T17:08:00;15.80;93.70
32534;DHT22;18973;48.580;8.912;2023-03-23T17:10:27;15.80;94.30
32534;DHT22;18973;48.580;8.912;2023-03-23T17:12:54;15.80;94.70
32534;DHT22;18973;48.580;8.912;2023-03-23T17:15:20;15.70;95.30
32534;DHT22;18973;48.580;8.912;2023-03-23T17:17:46;15.70;95.70
32534;DHT22;18973;48.580;8.912;2023-03-23T17:20:12;15.60;95.60
32534;DHT22;18973;48.580;8.912;2023-03-23T17:22:38;15.60;95.70
32534;DHT22;18973;48.580;8.912;2023-03-23T17:25:05;15.60;96.20
32534;DHT22;18973;48.580;8.912;2023-03-23T17:27:31;15.60;96.40
32534;DHT22;18973;48.580;8.912;2023-03-23T17:29:57;15.50;96.00
32534;DHT22;18973;48.580;8.912;2023-03-23T17:32:23;15.50;96.10